Vaiden, Mississippi
Current Conditions -  °F | °C
As of 3:53 AM on Sunday 23 Nov 2014 (Local Time) from KGWO Reporting Station
Overcast Overcast  
Wind Chill: 61°   Ceiling: 1100
Heat Index: 61°   Visibility: 10mi
Dew Point: 57°   Wind: 8mph
Humidity: 87%   Direction: 130°SE
Pressure: 29.79"   Gusts: NA
Location:  33.33°N, 89.74°W
Report Text: KGWO 230953Z AUTO 13007KT 10SM OVC011 16/14 A2979 RMK AO2 SLP085 T01610139 TSNO
Loading
Personal Weather Stations






























Interactive Weather Map New forecast layout! Learn more

10-Day Weather Forecast

Advertisements
Track Severe Weather on mobile